sensor_id;sensor_type;location;lat;lon;timestamp;temperature;humidity
35497;DHT22;21609;49.298;6.844;2023-04-01T00:01:04;19.40;51.70
35497;DHT22;21609;49.298;6.844;2023-04-01T00:03:31;19.40;51.70
35497;DHT22;21609;49.298;6.844;2023-04-01T00:05:59;19.30;51.70
35497;DHT22;21609;49.298;6.844;2023-04-01T00:08:26;19.30;51.70
35497;DHT22;21609;49.298;6.844;2023-04-01T00:10:52;19.30;51.70
35497;DHT22;21609;49.298;6.844;2023-04-01T00:13:19;19.30;51.60
35497;DHT22;21609;49.298;6.844;2023-04-01T00:15:45;19.30;52.30
35497;DHT22;21609;49.298;6.844;2023-04-01T00:18:11;19.30;51.70
35497;DHT22;21609;49.298;6.844;2023-04-01T00:20:39;19.30;51.70
35497;DHT22;21609;49.298;6.844;2023-04-01T00:23:04;19.30;51.80
35497;DHT22;21609;49.298;6.844;2023-04-01T00:25:30;19.20;51.70
35497;DHT22;21609;49.298;6.844;2023-04-01T00:27:56;19.20;51.70
35497;DHT22;21609;49.298;6.844;2023-04-01T00:30:22;19.20;51.70
35497;DHT22;21609;49.298;6.844;2023-04-01T00:32:51;19.20;51.70
35497;DHT22;21609;49.298;6.844;2023-04-01T00:35:17;19.20;51.80
35497;DHT22;21609;49.298;6.844;2023-04-01T00:37:43;19.20;51.80
35497;DHT22;21609;49.298;6.844;2023-04-01T00:40:26;19.20;51.80
35497;DHT22;21609;49.298;6.844;2023-04-01T00:42:51;19.20;51.80
35497;DHT22;21609;49.298;6.844;2023-04-01T00:48:01;19.20;51.90
35497;DHT22;21609;49.298;6.844;2023-04-01T00:50:28;19.20;51.80
35497;DHT22;21609;49.298;6.844;2023-04-01T00:52:55;19.10;51.80
35497;DHT22;21609;49.298;6.844;2023-04-01T00:55:21;19.10;51.80
35497;DHT22;21609;49.298;6.844;2023-04-01T00:57:49;19.10;51.80
35497;DHT22;21609;49.298;6.844;2023-04-01T01:00:17;19.10;51.90
35497;DHT22;21609;49.298;6.844;2023-04-01T01:02:45;19.10;51.90
35497;DHT22;21609;49.298;6.844;2023-04-01T01:05:13;19.10;51.90
35497;DHT22;21609;49.298;6.844;2023-04-01T01:08:10;19.10;51.90
35497;DHT22;21609;49.298;6.844;2023-04-01T01:10:39;19.10;51.90
35497;DHT22;21609;49.298;6.844;2023-04-01T01:13:20;19.10;52.50
35497;DHT22;21609;49.298;6.844;2023-04-01T01:27:03;19.00;51.90
35497;DHT22;21609;49.298;6.844;2023-04-01T01:32:23;19.00;52.00
35497;DHT22;21609;49.298;6.844;2023-04-01T01:35:31;19.00;52.00
35497;DHT22;21609;49.298;6.844;2023-04-01T01:38:02;19.00;52.00
35497;DHT22;21609;49.298;6.844;2023-04-01T01:40:30;18.90;51.90
35497;DHT22;21609;49.298;6.844;2023-04-01T01:43:00;18.90;52.00
35497;DHT22;21609;49.298;6.844;2023-04-01T01:45:30;18.90;52.00
35497;DHT22;21609;49.298;6.844;2023-04-01T01:47:58;18.90;52.00
35497;DHT22;21609;49.298;6.844;2023-04-01T01:50:26;18.90;52.00
35497;DHT22;21609;49.298;6.844;2023-04-01T01:53:06;18.90;52.00
35497;DHT22;21609;49.298;6.844;2023-04-01T01:55:35;18.90;52.00
35497;DHT22;21609;49.298;6.844;2023-04-01T01:58:22;18.90;52.00
35497;DHT22;21609;49.298;6.844;2023-04-01T02:00:57;18.90;52.00
35497;DHT22;21609;49.298;6.844;2023-04-01T02:03:27;18.90;52.10
35497;DHT22;21609;49.298;6.844;2023-04-01T02:05:56;18.90;52.00
35497;DHT22;21609;49.298;6.844;2023-04-01T02:08:39;18.90;52.10
35497;DHT22;21609;49.298;6.844;2023-04-01T02:11:10;18.90;52.10
35497;DHT22;21609;49.298;6.844;2023-04-01T02:13:44;18.80;52.00
35497;DHT22;21609;49.298;6.844;2023-04-01T02:16:26;18.80;52.00
35497;DHT22;21609;49.298;6.844;2023-04-01T02:18:53;18.80;52.10
35497;DHT22;21609;49.298;6.844;2023-04-01T02:21:22;18.80;52.10
35497;DHT22;21609;49.298;6.844;2023-04-01T02:23:50;18.80;52.10
35497;DHT22;21609;49.298;6.844;2023-04-01T02:26:18;18.80;52.10
35497;DHT22;21609;49.298;6.844;2023-04-01T02:28:46;18.70;52.00
35497;DHT22;21609;49.298;6.844;2023-04-01T02:31:14;18.80;52.10
35497;DHT22;21609;49.298;6.844;2023-04-01T02:33:41;18.70;52.00
35497;DHT22;21609;49.298;6.844;2023-04-01T02:36:11;18.70;52.00
35497;DHT22;21609;49.298;6.844;2023-04-01T02:38:37;18.80;52.10
35497;DHT22;21609;49.298;6.844;2023-04-01T02:41:03;18.70;52.10
35497;DHT22;21609;49.298;6.844;2023-04-01T02:43:30;18.70;52.10
35497;DHT22;21609;49.298;6.844;2023-04-01T02:45:56;18.70;52.10
35497;DHT22;21609;49.298;6.844;2023-04-01T02:48:21;18.70;52.10
35497;DHT22;21609;49.298;6.844;2023-04-01T02:50:47;18.70;52.10
35497;DHT22;21609;49.298;6.844;2023-04-01T02:53:12;18.70;52.20
35497;DHT22;21609;49.298;6.844;2023-04-01T02:55:38;18.70;52.10
35497;DHT22;21609;49.298;6.844;2023-04-01T02:58:04;18.70;52.10
35497;DHT22;21609;49.298;6.844;2023-04-01T03:00:30;18.70;52.10
35497;DHT22;21609;49.298;6.844;2023-04-01T03:02:55;18.70;52.10
35497;DHT22;21609;49.298;6.844;2023-04-01T03:05:22;18.70;52.20
35497;DHT22;21609;49.298;6.844;2023-04-01T03:07:48;18.70;52.10
35497;DHT22;21609;49.298;6.844;2023-04-01T03:10:13;18.70;52.20
35497;DHT22;21609;49.298;6.844;2023-04-01T03:12:39;18.60;52.10
35497;DHT22;21609;49.298;6.844;2023-04-01T03:15:06;18.60;52.10
35497;DHT22;21609;49.298;6.844;2023-04-01T03:17:31;18.60;52.10
35497;DHT22;21609;49.298;6.844;2023-04-01T03:19:57;18.60;52.10
35497;DHT22;21609;49.298;6.844;2023-04-01T03:22:22;18.60;52.10
35497;DHT22;21609;49.298;6.844;2023-04-01T03:24:48;18.60;52.10
35497;DHT22;21609;49.298;6.844;2023-04-01T03:27:14;18.60;52.20
35497;DHT22;21609;49.298;6.844;2023-04-01T03:29:39;18.60;52.20
35497;DHT22;21609;49.298;6.844;2023-04-01T03:32:05;18.60;52.20
35497;DHT22;21609;49.298;6.844;2023-04-01T03:34:31;18.60;52.20
35497;DHT22;21609;49.298;6.844;2023-04-01T03:36:57;18.60;52.20
35497;DHT22;21609;49.298;6.844;2023-04-01T03:39:23;18.60;52.20
35497;DHT22;21609;49.298;6.844;2023-04-01T03:41:49;18.50;52.10
35497;DHT22;21609;49.298;6.844;2023-04-01T03:44:14;18.50;52.20
35497;DHT22;21609;49.298;6.844;2023-04-01T03:46:40;18.50;52.20
35497;DHT22;21609;49.298;6.844;2023-04-01T03:49:10;18.50;52.20
35497;DHT22;21609;49.298;6.844;2023-04-01T03:51:41;18.50;52.20
35497;DHT22;21609;49.298;6.844;2023-04-01T03:54:07;18.50;52.20
35497;DHT22;21609;49.298;6.844;2023-04-01T03:56:33;18.50;52.20
35497;DHT22;21609;49.298;6.844;2023-04-01T03:59:02;18.50;52.30
35497;DHT22;21609;49.298;6.844;2023-04-01T04:01:28;18.50;52.30
35497;DHT22;21609;49.298;6.844;2023-04-01T04:03:55;18.50;52.30
35497;DHT22;21609;49.298;6.844;2023-04-01T04:06:20;18.50;52.30
35497;DHT22;21609;49.298;6.844;2023-04-01T04:08:46;18.50;52.30
35497;DHT22;21609;49.298;6.844;2023-04-01T04:11:12;18.50;52.30
35497;DHT22;21609;49.298;6.844;2023-04-01T04:13:37;18.50;52.30
35497;DHT22;21609;49.298;6.844;2023-04-01T04:16:03;18.40;52.30
35497;DHT22;21609;49.298;6.844;2023-04-01T04:18:29;18.50;52.30
35497;DHT22;21609;49.298;6.844;2023-04-01T04:20:55;18.40;52.30
35497;DHT22;21609;49.298;6.844;2023-04-01T04:23:21;18.40;52.30
35497;DHT22;21609;49.298;6.844;2023-04-01T04:26:02;18.40;52.30
35497;DHT22;21609;49.298;6.844;2023-04-01T04:28:28;18.40;52.30
35497;DHT22;21609;49.298;6.844;2023-04-01T04:30:55;18.40;52.30
35497;DHT22;21609;49.298;6.844;2023-04-01T04:33:22;18.40;52.30
35497;DHT22;21609;49.298;6.844;2023-04-01T04:35:47;18.30;52.30
35497;DHT22;21609;49.298;6.844;2023-04-01T04:38:13;18.40;52.40
35497;DHT22;21609;49.298;6.844;2023-04-01T04:40:40;18.40;52.30
35497;DHT22;21609;49.298;6.844;2023-04-01T04:43:06;18.40;52.40
35497;DHT22;21609;49.298;6.844;2023-04-01T04:45:32;18.40;52.40
35497;DHT22;21609;49.298;6.844;2023-04-01T04:47:58;18.30;52.30
35497;DHT22;21609;49.298;6.844;2023-04-01T04:50:24;18.30;52.30
35497;DHT22;21609;49.298;6.844;2023-04-01T04:52:50;18.30;52.30
35497;DHT22;21609;49.298;6.844;2023-04-01T04:55:16;18.30;52.30
35497;DHT22;21609;49.298;6.844;2023-04-01T04:57:42;18.30;52.40
35497;DHT22;21609;49.298;6.844;2023-04-01T05:00:08;18.30;52.40
35497;DHT22;21609;49.298;6.844;2023-04-01T05:02:35;18.30;52.40
35497;DHT22;21609;49.298;6.844;2023-04-01T05:05:01;18.30;52.40
35497;DHT22;21609;49.298;6.844;2023-04-01T05:07:26;18.30;52.40
35497;DHT22;21609;49.298;6.844;2023-04-01T05:09:52;18.30;52.40
35497;DHT22;21609;49.298;6.844;2023-04-01T05:12:17;18.30;52.40
35497;DHT22;21609;49.298;6.844;2023-04-01T05:14:43;18.30;52.40
35497;DHT22;21609;49.298;6.844;2023-04-01T05:17:10;18.30;52.40
35497;DHT22;21609;49.298;6.844;2023-04-01T05:19:36;18.30;52.40
35497;DHT22;21609;49.298;6.844;2023-04-01T05:22:01;18.20;52.40
35497;DHT22;21609;49.298;6.844;2023-04-01T05:24:27;18.20;52.40
35497;DHT22;21609;49.298;6.844;2023-04-01T05:26:52;18.20;52.40
35497;DHT22;21609;49.298;6.844;2023-04-01T05:29:18;18.20;52.40
35497;DHT22;21609;49.298;6.844;2023-04-01T05:31:44;18.20;52.40
35497;DHT22;21609;49.298;6.844;2023-04-01T05:34:09;18.20;52.40
35497;DHT22;21609;49.298;6.844;2023-04-01T05:36:35;18.20;52.40
35497;DHT22;21609;49.298;6.844;2023-04-01T05:39:01;18.20;52.50
35497;DHT22;21609;49.298;6.844;2023-04-01T05:41:27;18.20;52.50
35497;DHT22;21609;49.298;6.844;2023-04-01T05:43:52;18.20;52.50
35497;DHT22;21609;49.298;6.844;2023-04-01T05:46:18;18.20;52.50
35497;DHT22;21609;49.298;6.844;2023-04-01T05:48:43;18.20;52.50
35497;DHT22;21609;49.298;6.844;2023-04-01T05:51:15;18.20;52.50
35497;DHT22;21609;49.298;6.844;2023-04-01T05:53:41;18.20;52.50
35497;DHT22;21609;49.298;6.844;2023-04-01T05:56:07;18.10;52.50
35497;DHT22;21609;49.298;6.844;2023-04-01T05:58:35;18.10;53.40
35497;DHT22;21609;49.298;6.844;2023-04-01T06:01:06;18.10;53.10
35497;DHT22;21609;49.298;6.844;2023-04-01T06:03:32;18.20;53.20
35497;DHT22;21609;49.298;6.844;2023-04-01T06:05:57;18.10;52.90
35497;DHT22;21609;49.298;6.844;2023-04-01T06:08:24;18.10;53.20
35497;DHT22;21609;49.298;6.844;2023-04-01T06:11:04;18.10;53.10
35497;DHT22;21609;49.298;6.844;2023-04-01T06:13:54;18.10;53.10
35497;DHT22;21609;49.298;6.844;2023-04-01T06:19:35;18.10;53.10
35497;DHT22;21609;49.298;6.844;2023-04-01T06:24:34;18.10;53.00
35497;DHT22;21609;49.298;6.844;2023-04-01T06:32:47;18.10;53.00
35497;DHT22;21609;49.298;6.844;2023-04-01T06:35:42;18.10;53.00
35497;DHT22;21609;49.298;6.844;2023-04-01T06:54:42;18.00;53.00
35497;DHT22;21609;49.298;6.844;2023-04-01T06:57:35;18.00;52.90
35497;DHT22;21609;49.298;6.844;2023-04-01T07:03:05;18.00;52.90
35497;DHT22;21609;49.298;6.844;2023-04-01T07:05:32;18.00;53.00
35497;DHT22;21609;49.298;6.844;2023-04-01T07:08:02;18.00;53.00
35497;DHT22;21609;49.298;6.844;2023-04-01T07:10:47;18.00;53.00
35497;DHT22;21609;49.298;6.844;2023-04-01T07:13:48;18.00;53.00
35497;DHT22;21609;49.298;6.844;2023-04-01T07:16:42;18.00;53.50
35497;DHT22;21609;49.298;6.844;2023-04-01T07:19:45;18.00;53.20
35497;DHT22;21609;49.298;6.844;2023-04-01T07:22:35;18.00;53.20
35497;DHT22;21609;49.298;6.844;2023-04-01T07:25:17;18.00;53.20
35497;DHT22;21609;49.298;6.844;2023-04-01T07:27:44;18.00;53.00
35497;DHT22;21609;49.298;6.844;2023-04-01T07:30:18;18.00;53.00
35497;DHT22;21609;49.298;6.844;2023-04-01T07:35:32;18.00;53.20
35497;DHT22;21609;49.298;6.844;2023-04-01T07:41:07;17.90;53.10
35497;DHT22;21609;49.298;6.844;2023-04-01T07:49:10;17.90;53.10
35497;DHT22;21609;49.298;6.844;2023-04-01T07:51:49;17.90;53.00
35497;DHT22;21609;49.298;6.844;2023-04-01T08:00:06;17.90;53.00
35497;DHT22;21609;49.298;6.844;2023-04-01T08:05:58;17.90;53.10
35497;DHT22;21609;49.298;6.844;2023-04-01T08:11:22;17.90;53.10
35497;DHT22;21609;49.298;6.844;2023-04-01T08:22:36;17.80;53.10
35497;DHT22;21609;49.298;6.844;2023-04-01T08:25:05;17.80;53.10
35497;DHT22;21609;49.298;6.844;2023-04-01T08:27:51;17.80;53.10
35497;DHT22;21609;49.298;6.844;2023-04-01T08:30:35;17.80;53.10
35497;DHT22;21609;49.298;6.844;2023-04-01T08:33:15;17.80;53.00
35497;DHT22;21609;49.298;6.844;2023-04-01T08:35:53;17.80;53.10
35497;DHT22;21609;49.298;6.844;2023-04-01T08:38:26;17.80;53.10
35497;DHT22;21609;49.298;6.844;2023-04-01T08:47:24;17.80;53.20
35497;DHT22;21609;49.298;6.844;2023-04-01T08:52:36;17.80;53.20
35497;DHT22;21609;49.298;6.844;2023-04-01T08:57:40;17.80;53.20
35497;DHT22;21609;49.298;6.844;2023-04-01T09:00:18;17.80;53.10
35497;DHT22;21609;49.298;6.844;2023-04-01T09:03:10;17.80;53.10
35497;DHT22;21609;49.298;6.844;2023-04-01T09:05:54;17.80;53.10
35497;DHT22;21609;49.298;6.844;2023-04-01T09:14:54;17.80;53.30
35497;DHT22;21609;49.298;6.844;2023-04-01T09:20:27;17.80;53.20
35497;DHT22;21609;49.298;6.844;2023-04-01T09:26:02;17.70;53.20
35497;DHT22;21609;49.298;6.844;2023-04-01T09:28:42;17.70;53.30
35497;DHT22;21609;49.298;6.844;2023-04-01T09:31:23;17.80;53.30
35497;DHT22;21609;49.298;6.844;2023-04-01T09:34:09;17.70;53.30
35497;DHT22;21609;49.298;6.844;2023-04-01T09:36:45;17.70;53.30
35497;DHT22;21609;49.298;6.844;2023-04-01T09:39:37;17.70;53.30
35497;DHT22;21609;49.298;6.844;2023-04-01T09:42:49;17.70;53.30
35497;DHT22;21609;49.298;6.844;2023-04-01T09:53:27;17.70;53.30
35497;DHT22;21609;49.298;6.844;2023-04-01T10:10:23;17.70;53.40
35497;DHT22;21609;49.298;6.844;2023-04-01T10:13:52;17.70;53.40
35497;DHT22;21609;49.298;6.844;2023-04-01T10:16:18;17.70;53.50
35497;DHT22;21609;49.298;6.844;2023-04-01T10:22:41;17.60;53.40
35497;DHT22;21609;49.298;6.844;2023-04-01T10:27:44;17.70;53.40
35497;DHT22;21609;49.298;6.844;2023-04-01T10:33:19;17.70;53.40
35497;DHT22;21609;49.298;6.844;2023-04-01T11:01:36;17.60;53.50
35497;DHT22;21609;49.298;6.844;2023-04-01T11:16:33;17.60;53.70
35497;DHT22;21609;49.298;6.844;2023-04-01T11:19:10;17.60;53.60
35497;DHT22;21609;49.298;6.844;2023-04-01T11:24:42;17.60;53.60
35497;DHT22;21609;49.298;6.844;2023-04-01T11:27:25;17.60;53.70
35497;DHT22;21609;49.298;6.844;2023-04-01T11:30:02;17.70;53.80
35497;DHT22;21609;49.298;6.844;2023-04-01T11:39:01;18.00;53.30
35497;DHT22;21609;49.298;6.844;2023-04-01T11:41:27;18.10;53.20
35497;DHT22;21609;49.298;6.844;2023-04-01T11:44:18;18.10;53.10
35497;DHT22;21609;49.298;6.844;2023-04-01T11:46:57;18.20;53.20
35497;DHT22;21609;49.298;6.844;2023-04-01T11:49:49;18.20;53.20
35497;DHT22;21609;49.298;6.844;2023-04-01T11:52:33;18.20;53.20
35497;DHT22;21609;49.298;6.844;2023-04-01T11:55:18;18.30;53.20
35497;DHT22;21609;49.298;6.844;2023-04-01T12:06:29;18.30;53.20
35497;DHT22;21609;49.298;6.844;2023-04-01T12:09:19;18.40;53.30
35497;DHT22;21609;49.298;6.844;2023-04-01T12:12:07;18.40;53.30
35497;DHT22;21609;49.298;6.844;2023-04-01T12:14:59;18.40;53.30
35497;DHT22;21609;49.298;6.844;2023-04-01T12:17:39;18.50;53.30
35497;DHT22;21609;49.298;6.844;2023-04-01T12:23:02;18.50;53.20
35497;DHT22;21609;49.298;6.844;2023-04-01T12:28:37;18.60;53.20
35497;DHT22;21609;49.298;6.844;2023-04-01T12:31:38;18.60;53.20
35497;DHT22;21609;49.298;6.844;2023-04-01T12:43:05;18.70;53.00
35497;DHT22;21609;49.298;6.844;2023-04-01T12:52:31;18.80;53.10
35497;DHT22;21609;49.298;6.844;2023-04-01T13:25:22;19.20;52.70
35497;DHT22;21609;49.298;6.844;2023-04-01T13:28:00;19.30;52.70
35497;DHT22;21609;49.298;6.844;2023-04-01T13:30:44;19.30;52.60
35497;DHT22;21609;49.298;6.844;2023-04-01T13:33:29;19.30;52.50
35497;DHT22;21609;49.298;6.844;2023-04-01T13:39:02;19.30;52.50
35497;DHT22;21609;49.298;6.844;2023-04-01T13:44:28;19.40;52.50
35497;DHT22;21609;49.298;6.844;2023-04-01T13:53:02;19.50;52.40
35497;DHT22;21609;49.298;6.844;2023-04-01T14:03:32;19.50;52.30
35497;DHT22;21609;49.298;6.844;2023-04-01T14:06:23;19.60;52.20
35497;DHT22;21609;49.298;6.844;2023-04-01T14:09:00;19.60;52.20
35497;DHT22;21609;49.298;6.844;2023-04-01T14:22:37;19.70;52.10
35497;DHT22;21609;49.298;6.844;2023-04-01T14:48:00;19.70;51.80
35497;DHT22;21609;49.298;6.844;2023-04-01T14:50:41;19.70;51.90
35497;DHT22;21609;49.298;6.844;2023-04-01T14:53:31;19.70;51.80
35497;DHT22;21609;49.298;6.844;2023-04-01T14:56:00;19.70;51.70
35497;DHT22;21609;49.298;6.844;2023-04-01T14:58:46;19.80;51.90
35497;DHT22;21609;49.298;6.844;2023-04-01T15:06:53;19.70;51.80
35497;DHT22;21609;49.298;6.844;2023-04-01T15:09:29;19.70;51.80
35497;DHT22;21609;49.298;6.844;2023-04-01T15:12:16;19.70;51.90
35497;DHT22;21609;49.298;6.844;2023-04-01T15:20:33;19.70;51.70
35497;DHT22;21609;49.298;6.844;2023-04-01T15:28:39;19.80;51.70
35497;DHT22;21609;49.298;6.844;2023-04-01T15:31:38;19.80;51.60
35497;DHT22;21609;49.298;6.844;2023-04-01T15:34:32;19.80;51.50
35497;DHT22;21609;49.298;6.844;2023-04-01T15:39:57;19.80;51.50
35497;DHT22;21609;49.298;6.844;2023-04-01T15:45:33;19.80;51.50
35497;DHT22;21609;49.298;6.844;2023-04-01T15:48:06;19.80;51.50
35497;DHT22;21609;49.298;6.844;2023-04-01T15:54:00;19.90;51.70
35497;DHT22;21609;49.298;6.844;2023-04-01T15:59:40;19.90;51.60
35497;DHT22;21609;49.298;6.844;2023-04-01T16:11:04;20.00;51.30
35497;DHT22;21609;49.298;6.844;2023-04-01T16:14:06;20.00;51.30
35497;DHT22;21609;49.298;6.844;2023-04-01T16:22:19;20.10;51.60
35497;DHT22;21609;49.298;6.844;2023-04-01T16:30:03;20.10;51.40
35497;DHT22;21609;49.298;6.844;2023-04-01T16:33:02;20.10;51.30
35497;DHT22;21609;49.298;6.844;2023-04-01T16:35:50;20.10;51.30
35497;DHT22;21609;49.298;6.844;2023-04-01T16:38:38;20.10;51.40
35497;DHT22;21609;49.298;6.844;2023-04-01T16:41:23;20.10;51.20
35497;DHT22;21609;49.298;6.844;2023-04-01T16:43:56;20.10;51.00
35497;DHT22;21609;49.298;6.844;2023-04-01T16:46:32;20.10;51.10
35497;DHT22;21609;49.298;6.844;2023-04-01T16:59:38;20.10;51.00
35497;DHT22;21609;49.298;6.844;2023-04-01T17:04:51;20.10;51.20
35497;DHT22;21609;49.298;6.844;2023-04-01T17:10:17;20.10;51.20
35497;DHT22;21609;49.298;6.844;2023-04-01T17:12:51;20.10;51.10
35497;DHT22;21609;49.298;6.844;2023-04-01T17:18:23;20.10;51.20
35497;DHT22;21609;49.298;6.844;2023-04-01T17:21:06;20.20;51.20
35497;DHT22;21609;49.298;6.844;2023-04-01T17:23:52;20.20;51.00
35497;DHT22;21609;49.298;6.844;2023-04-01T17:26:41;20.20;51.00
35497;DHT22;21609;49.298;6.844;2023-04-01T17:29:36;20.20;50.90
35497;DHT22;21609;49.298;6.844;2023-04-01T17:32:28;20.30;50.90
35497;DHT22;21609;49.298;6.844;2023-04-01T17:35:19;20.30;50.90
35497;DHT22;21609;49.298;6.844;2023-04-01T17:40:53;20.30;51.00
35497;DHT22;21609;49.298;6.844;2023-04-01T17:46:50;20.30;50.90
35497;DHT22;21609;49.298;6.844;2023-04-01T17:52:27;20.30;50.80
35497;DHT22;21609;49.298;6.844;2023-04-01T18:00:50;20.20;50.70
35497;DHT22;21609;49.298;6.844;2023-04-01T18:12:13;20.30;50.70
35497;DHT22;21609;49.298;6.844;2023-04-01T18:20:53;20.40;50.40
35497;DHT22;21609;49.298;6.844;2023-04-01T18:23:43;20.40;50.60
35497;DHT22;21609;49.298;6.844;2023-04-01T18:26:33;20.30;50.40
35497;DHT22;21609;49.298;6.844;2023-04-01T18:31:43;20.30;50.50
35497;DHT22;21609;49.298;6.844;2023-04-01T18:34:52;20.30;50.50
35497;DHT22;21609;49.298;6.844;2023-04-01T18:37:24;20.30;50.40
35497;DHT22;21609;49.298;6.844;2023-04-01T18:40:02;20.30;50.30
35497;DHT22;21609;49.298;6.844;2023-04-01T18:42:44;20.30;50.50
35497;DHT22;21609;49.298;6.844;2023-04-01T18:45:23;20.20;50.30
35497;DHT22;21609;49.298;6.844;2023-04-01T18:50:55;20.30;50.50
35497;DHT22;21609;49.298;6.844;2023-04-01T18:53:53;20.30;50.40
35497;DHT22;21609;49.298;6.844;2023-04-01T18:56:30;20.40;50.40
35497;DHT22;21609;49.298;6.844;2023-04-01T19:02:20;20.40;50.30
35497;DHT22;21609;49.298;6.844;2023-04-01T19:05:12;20.40;50.30
35497;DHT22;21609;49.298;6.844;2023-04-01T19:26:53;20.40;50.10
35497;DHT22;21609;49.298;6.844;2023-04-01T19:29:28;20.40;50.20
35497;DHT22;21609;49.298;6.844;2023-04-01T19:37:40;20.50;50.20
35497;DHT22;21609;49.298;6.844;2023-04-01T19:40:31;20.50;50.10
35497;DHT22;21609;49.298;6.844;2023-04-01T19:50:57;20.50;50.20
35497;DHT22;21609;49.298;6.844;2023-04-01T19:53:40;20.50;50.40
35497;DHT22;21609;49.298;6.844;2023-04-01T19:59:37;20.50;50.10
35497;DHT22;21609;49.298;6.844;2023-04-01T20:04:42;20.50;50.40
35497;DHT22;21609;49.298;6.844;2023-04-01T20:07:35;20.40;50.30
35497;DHT22;21609;49.298;6.844;2023-04-01T20:17:47;20.50;50.50
35497;DHT22;21609;49.298;6.844;2023-04-01T20:20:24;20.40;50.50
35497;DHT22;21609;49.298;6.844;2023-04-01T20:25:48;20.40;50.40
35497;DHT22;21609;49.298;6.844;2023-04-01T20:34:09;20.40;50.70
35497;DHT22;21609;49.298;6.844;2023-04-01T20:36:58;20.40;50.50
35497;DHT22;21609;49.298;6.844;2023-04-01T20:42:26;20.40;50.50
35497;DHT22;21609;49.298;6.844;2023-04-01T20:58:35;20.40;50.50
35497;DHT22;21609;49.298;6.844;2023-04-01T21:01:32;20.40;50.40
35497;DHT22;21609;49.298;6.844;2023-04-01T21:04:22;20.40;50.30
35497;DHT22;21609;49.298;6.844;2023-04-01T21:10:01;20.30;50.40
35497;DHT22;21609;49.298;6.844;2023-04-01T21:12:47;20.30;50.20
35497;DHT22;21609;49.298;6.844;2023-04-01T21:18:13;20.30;50.50
35497;DHT22;21609;49.298;6.844;2023-04-01T21:31:50;20.20;50.20
35497;DHT22;21609;49.298;6.844;2023-04-01T21:37:36;20.20;50.30
35497;DHT22;21609;49.298;6.844;2023-04-01T21:45:27;20.20;50.20
35497;DHT22;21609;49.298;6.844;2023-04-01T21:50:44;20.10;50.40
35497;DHT22;21609;49.298;6.844;2023-04-01T22:07:46;20.00;50.50
35497;DHT22;21609;49.298;6.844;2023-04-01T22:19:15;19.90;50.50
35497;DHT22;21609;49.298;6.844;2023-04-01T22:27:41;19.90;50.60
35497;DHT22;21609;49.298;6.844;2023-04-01T22:32:45;19.90;50.60
35497;DHT22;21609;49.298;6.844;2023-04-01T22:43:39;19.80;50.70
35497;DHT22;21609;49.298;6.844;2023-04-01T22:49:15;19.80;50.70
35497;DHT22;21609;49.298;6.844;2023-04-01T22:52:11;19.80;50.80
35497;DHT22;21609;49.298;6.844;2023-04-01T22:54:45;19.70;50.70
35497;DHT22;21609;49.298;6.844;2023-04-01T22:57:44;19.70;50.80
35497;DHT22;21609;49.298;6.844;2023-04-01T23:00:22;19.80;50.80
35497;DHT22;21609;49.298;6.844;2023-04-01T23:05:31;19.70;50.80
35497;DHT22;21609;49.298;6.844;2023-04-01T23:10:52;19.70;50.80
35497;DHT22;21609;49.298;6.844;2023-04-01T23:13:26;19.60;50.80
35497;DHT22;21609;49.298;6.844;2023-04-01T23:15:53;19.60;50.80
35497;DHT22;21609;49.298;6.844;2023-04-01T23:21:06;19.60;50.90
35497;DHT22;21609;49.298;6.844;2023-04-01T23:26:56;19.60;50.90
35497;DHT22;21609;49.298;6.844;2023-04-01T23:29:24;19.50;50.80
35497;DHT22;21609;49.298;6.844;2023-04-01T23:32:01;19.50;51.00
35497;DHT22;21609;49.298;6.844;2023-04-01T23:34:33;19.50;50.90
35497;DHT22;21609;49.298;6.844;2023-04-01T23:37:08;19.50;50.90
35497;DHT22;21609;49.298;6.844;2023-04-01T23:39:39;19.50;50.90
35497;DHT22;21609;49.298;6.844;2023-04-01T23:42:26;19.50;51.00
35497;DHT22;21609;49.298;6.844;2023-04-01T23:44:57;19.50;51.00
35497;DHT22;21609;49.298;6.844;2023-04-01T23:47:30;19.50;51.00
35497;DHT22;21609;49.298;6.844;2023-04-01T23:49:59;19.40;50.90
35497;DHT22;21609;49.298;6.844;2023-04-01T23:52:29;19.40;51.00
35497;DHT22;21609;49.298;6.844;2023-04-01T23:55:03;19.40;51.00
35497;DHT22;21609;49.298;6.844;2023-04-01T23:57:31;19.40;51.00
